createdAt,value
2018-01-13T00:00:27.021Z,12.17
2018-01-13T00:02:55.366Z,13.67
2018-01-13T00:05:23.810Z,18.87
2018-01-13T00:07:51.338Z,14.80
2018-01-13T00:10:19.922Z,12.83
2018-01-13T00:12:47.509Z,13.20
2018-01-13T00:15:16.913Z,11.93
2018-01-13T00:17:46.988Z,16.43
2018-01-13T00:20:17.586Z,17.67
2018-01-13T00:22:47.317Z,11.90
2018-01-13T00:25:14.945Z,15.40
2018-01-13T00:27:43.422Z,16.47
2018-01-13T00:30:11.765Z,15.83
2018-01-13T00:32:40.707Z,18.63
2018-01-13T00:35:08.291Z,17.30
2018-01-13T00:37:37.565Z,9.97
2018-01-13T00:40:11.715Z,14.63
2018-01-13T00:42:39.259Z,15.63
2018-01-13T00:45:06.846Z,19.67
2018-01-13T00:47:34.435Z,15.73
2018-01-13T00:50:02.599Z,15.37
2018-01-13T00:52:30.155Z,14.70
2018-01-13T00:54:58.533Z,15.63
2018-01-13T00:57:26.900Z,16.27
2018-01-13T00:59:56.190Z,23.37
2018-01-13T01:02:23.749Z,15.43
2018-01-13T01:04:52.159Z,16.00
2018-01-13T01:07:20.472Z,17.10
2018-01-13T01:09:48.874Z,17.60
2018-01-13T01:12:18.220Z,18.13
2018-01-13T01:14:47.362Z,19.30
2018-01-13T01:17:14.901Z,26.43
2018-01-13T01:19:43.421Z,17.97
2018-01-13T01:22:11.824Z,15.67
2018-01-13T01:24:40.458Z,19.97
2018-01-13T01:27:08.577Z,19.93
2018-01-13T01:29:37.834Z,19.50
2018-01-13T01:32:07.123Z,15.37
2018-01-13T01:34:35.516Z,12.40
2018-01-13T01:37:03.948Z,15.30
2018-01-13T01:39:38.947Z,17.27
2018-01-13T01:42:08.218Z,18.57
2018-01-13T01:44:37.376Z,19.17
2018-01-13T01:47:07.772Z,23.07
2018-01-13T01:49:37.652Z,17.73
2018-01-13T01:52:05.220Z,14.20
2018-01-13T01:54:34.832Z,17.23
2018-01-13T01:57:02.385Z,15.43
2018-01-13T01:59:34.910Z,18.43
2018-01-13T02:02:03.028Z,18.43
2018-01-13T02:04:31.948Z,12.93
2018-01-13T02:07:00.260Z,22.03
2018-01-13T02:09:28.799Z,11.53
2018-01-13T02:11:56.430Z,17.37
2018-01-13T02:14:24.314Z,17.03
2018-01-13T02:16:51.853Z,13.40
2018-01-13T02:19:19.459Z,22.77
2018-01-13T02:21:48.456Z,13.80
2018-01-13T02:24:16.043Z,17.13
2018-01-13T02:26:46.439Z,16.73
2018-01-13T02:29:15.221Z,18.50
2018-01-13T02:31:43.458Z,15.17
2018-01-13T02:34:11.043Z,17.03
2018-01-13T02:36:38.620Z,18.37
2018-01-13T02:39:08.677Z,15.57
2018-01-13T02:41:36.899Z,20.13
2018-01-13T02:44:06.546Z,15.47
2018-01-13T02:46:34.118Z,17.90
2018-01-13T02:49:01.663Z,19.30
2018-01-13T02:51:30.853Z,15.17
2018-01-13T02:54:04.924Z,17.97
2018-01-13T02:56:32.514Z,14.47
2018-01-13T02:59:00.558Z,18.90
2018-01-13T03:01:28.932Z,15.63
2018-01-13T03:03:58.198Z,15.33
2018-01-13T03:06:25.795Z,17.00
2018-01-13T03:08:54.394Z,16.43
2018-01-13T03:11:22.916Z,15.50
2018-01-13T03:13:51.231Z,17.93
2018-01-13T03:16:19.606Z,16.20
2018-01-13T03:18:48.956Z,14.73
2018-01-13T03:21:16.497Z,18.40
2018-01-13T03:23:45.328Z,15.20
2018-01-13T03:26:13.807Z,11.67
2018-01-13T03:28:44.211Z,13.87
2018-01-13T03:31:11.867Z,11.80
2018-01-13T03:33:39.450Z,14.87
2018-01-13T03:36:15.031Z,16.90
2018-01-13T03:38:51.989Z,11.90
2018-01-13T03:41:20.423Z,13.73
2018-01-13T03:43:50.112Z,13.73
2018-01-13T03:46:18.678Z,17.90
2018-01-13T03:48:47.035Z,14.93
2018-01-13T03:51:16.075Z,20.10
2018-01-13T03:53:43.670Z,14.80
2018-01-13T03:56:11.210Z,18.23
2018-01-13T03:58:41.306Z,16.70
2018-01-13T04:01:09.577Z,14.87
2018-01-13T04:03:38.013Z,16.33
2018-01-13T04:06:07.259Z,17.40
2018-01-13T04:08:34.851Z,17.17
2018-01-13T04:11:02.399Z,15.43
2018-01-13T04:13:30.561Z,16.70
2018-01-13T04:15:58.103Z,15.80
2018-01-13T04:18:26.310Z,16.57
2018-01-13T04:20:56.425Z,17.30
2018-01-13T04:23:24.042Z,18.90
2018-01-13T04:25:51.618Z,21.33
2018-01-13T04:28:20.363Z,19.30
2018-01-13T04:30:48.659Z,17.63
2018-01-13T04:33:19.909Z,17.03
2018-01-13T04:35:48.351Z,15.67
2018-01-13T04:38:16.701Z,18.60
2018-01-13T04:40:44.274Z,15.93
2018-01-13T04:43:12.631Z,18.33
2018-01-13T04:45:41.203Z,18.00
2018-01-13T04:48:08.787Z,20.37
2018-01-13T04:50:36.331Z,21.50
2018-01-13T04:53:03.906Z,22.23
2018-01-13T04:55:32.015Z,14.90
2018-01-13T04:58:01.036Z,20.13
2018-01-13T05:00:28.594Z,16.77
2018-01-13T05:02:58.670Z,19.03
2018-01-13T05:05:26.225Z,16.27
2018-01-13T05:07:54.753Z,17.33
2018-01-13T05:10:25.744Z,20.90
2018-01-13T05:12:56.166Z,15.43
2018-01-13T05:15:23.713Z,17.60
2018-01-13T05:17:54.608Z,17.60
2018-01-13T05:20:23.731Z,15.80
2018-01-13T05:22:51.323Z,21.80
2018-01-13T05:25:19.776Z,18.67
2018-01-13T05:27:49.705Z,20.60
2018-01-13T05:30:19.264Z,19.03
2018-01-13T05:32:47.710Z,20.40
2018-01-13T05:35:16.373Z,26.23
2018-01-13T05:37:43.963Z,22.53
2018-01-13T05:40:11.518Z,15.67
2018-01-13T05:42:40.911Z,20.37
2018-01-13T05:45:09.886Z,20.20
2018-01-13T05:47:38.260Z,18.03
2018-01-13T05:50:05.807Z,19.40
2018-01-13T05:52:34.344Z,17.60
2018-01-13T05:55:02.723Z,21.43
2018-01-13T05:57:31.110Z,18.40
2018-01-13T06:00:01.412Z,19.23
2018-01-13T06:02:28.999Z,22.47
2018-01-13T06:04:56.548Z,19.23
2018-01-13T06:07:25.875Z,20.40
2018-01-13T06:09:54.134Z,19.97
2018-01-13T06:12:22.489Z,17.97
2018-01-13T06:14:50.946Z,22.50
2018-01-13T06:17:19.693Z,21.10
2018-01-13T06:19:50.183Z,23.87
2018-01-13T06:22:21.046Z,23.77
2018-01-13T06:24:49.676Z,19.10
2018-01-13T06:27:19.064Z,20.90
2018-01-13T06:29:53.412Z,24.20
2018-01-13T06:32:22.597Z,25.30
2018-01-13T06:34:50.206Z,20.80
2018-01-13T06:37:20.731Z,22.90
2018-01-13T06:39:48.747Z,21.57
2018-01-13T06:42:17.183Z,23.80
2018-01-13T06:44:47.407Z,22.23
2018-01-13T06:47:16.956Z,20.60
2018-01-13T06:49:45.286Z,23.17
2018-01-13T06:52:14.242Z,21.20
2018-01-13T06:54:42.680Z,24.87
2018-01-13T06:57:13.468Z,21.00
2018-01-13T06:59:40.998Z,21.33
2018-01-13T07:02:08.620Z,18.97
2018-01-13T07:04:37.563Z,20.87
2018-01-13T07:07:06.295Z,19.03
2018-01-13T07:09:37.775Z,17.03
2018-01-13T07:12:13.920Z,24.20
2018-01-13T07:14:44.896Z,20.83
2018-01-13T07:17:13.235Z,16.97
2018-01-13T07:19:41.887Z,25.13
2018-01-13T07:22:12.345Z,19.13
2018-01-13T07:24:40.776Z,23.43
2018-01-13T07:27:10.818Z,26.83
2018-01-13T07:29:38.986Z,18.97
2018-01-13T07:32:07.561Z,21.63
2018-01-13T07:34:37.975Z,25.73
2018-01-13T07:37:08.716Z,25.30
2018-01-13T07:39:36.261Z,30.80
2018-01-13T07:42:03.844Z,22.80
2018-01-13T07:44:31.409Z,19.83
2018-01-13T07:46:59.819Z,20.87
2018-01-13T07:49:30.231Z,16.10
2018-01-13T07:51:58.414Z,16.47
2018-01-13T07:54:25.947Z,16.23
2018-01-13T07:56:54.292Z,18.07
2018-01-13T07:59:22.536Z,22.83
2018-01-13T08:01:51.060Z,20.07
2018-01-13T08:04:18.613Z,18.80
2018-01-13T08:06:46.193Z,14.83
2018-01-13T08:09:15.080Z,15.30
2018-01-13T08:11:43.995Z,16.07
2018-01-13T08:14:11.535Z,16.40
2018-01-13T08:16:40.412Z,14.43
2018-01-13T08:19:08.820Z,17.70
2018-01-13T08:21:37.095Z,16.27
2018-01-13T08:24:04.628Z,13.83
2018-01-13T08:26:33.110Z,15.57
2018-01-13T08:29:02.158Z,14.40
2018-01-13T08:31:29.737Z,15.33
2018-01-13T08:33:59.948Z,13.23
2018-01-13T08:36:28.374Z,14.20
2018-01-13T08:38:55.905Z,18.03
2018-01-13T08:41:24.222Z,13.37
2018-01-13T08:43:51.754Z,12.67
2018-01-13T08:46:21.041Z,14.03
2018-01-13T08:48:49.319Z,16.37
2018-01-13T08:51:16.895Z,16.60
2018-01-13T08:53:46.175Z,13.30
2018-01-13T08:56:13.810Z,13.60
2018-01-13T08:58:44.631Z,16.10
2018-01-13T09:01:13.386Z,15.80
2018-01-13T09:03:43.820Z,15.33
2018-01-13T09:06:13.901Z,18.00
2018-01-13T09:08:45.419Z,19.70
2018-01-13T09:11:13.304Z,17.43
2018-01-13T09:13:41.562Z,15.70
2018-01-13T09:16:10.247Z,15.70
2018-01-13T09:18:39.613Z,15.10
2018-01-13T09:21:07.414Z,18.80
2018-01-13T09:23:35.389Z,18.10
2018-01-13T09:26:03.057Z,16.47
2018-01-13T09:28:30.605Z,14.53
2018-01-13T09:30:58.200Z,17.07
2018-01-13T09:33:25.760Z,15.43
2018-01-13T09:35:56.572Z,14.97
2018-01-13T09:38:24.246Z,17.87
2018-01-13T09:40:53.430Z,16.13
2018-01-13T09:43:20.985Z,14.07
2018-01-13T09:45:48.590Z,14.03
2018-01-13T09:48:17.037Z,14.00
2018-01-13T09:50:45.182Z,13.53
2018-01-13T09:53:12.719Z,15.57
2018-01-13T09:55:41.336Z,12.87
2018-01-13T09:58:10.652Z,16.43
2018-01-13T10:00:38.226Z,13.50
2018-01-13T10:03:05.768Z,18.60
2018-01-13T10:05:33.406Z,17.67
2018-01-13T10:08:01.777Z,14.50
2018-01-13T10:10:29.425Z,13.33
2018-01-13T10:12:56.959Z,12.23
2018-01-13T10:15:24.547Z,18.73
2018-01-13T10:17:53.628Z,16.60
2018-01-13T10:20:21.200Z,15.23
2018-01-13T10:22:50.266Z,16.13
2018-01-13T10:25:17.852Z,12.77
2018-01-13T10:27:45.825Z,14.40
2018-01-13T10:30:13.411Z,14.73
2018-01-13T10:32:42.024Z,10.87
2018-01-13T10:35:10.313Z,11.60
2018-01-13T10:37:38.397Z,14.40
2018-01-13T10:40:06.032Z,14.10
2018-01-13T10:42:33.571Z,13.07
2018-01-13T10:45:02.742Z,12.60
2018-01-13T10:47:31.656Z,12.90
2018-01-13T10:50:00.106Z,11.43
2018-01-13T10:52:28.207Z,11.47
2018-01-13T10:54:55.775Z,9.93
2018-01-13T10:57:27.918Z,12.80
2018-01-13T10:59:56.270Z,12.90
2018-01-13T11:02:25.954Z,11.83
2018-01-13T11:04:54.593Z,11.63
2018-01-13T11:07:23.408Z,14.93
2018-01-13T11:09:51.669Z,10.40
2018-01-13T11:12:19.246Z,10.87
2018-01-13T11:14:48.194Z,10.87
2018-01-13T11:17:16.394Z,10.00
2018-01-13T11:19:44.797Z,12.80
2018-01-13T11:22:12.353Z,12.73
2018-01-13T11:24:42.179Z,12.53
2018-01-13T11:27:11.307Z,11.40
2018-01-13T11:29:38.923Z,10.40
2018-01-13T11:32:06.464Z,12.63
2018-01-13T11:34:34.035Z,9.87
2018-01-13T11:37:02.255Z,9.13
2018-01-13T11:39:30.686Z,9.30
2018-01-13T11:41:58.237Z,11.33
2018-01-13T11:44:26.764Z,10.27
2018-01-13T11:46:54.347Z,12.20
2018-01-13T11:49:23.502Z,10.70
2018-01-13T11:51:51.994Z,12.60
2018-01-13T11:54:20.986Z,12.40
2018-01-13T11:56:48.531Z,11.70
2018-01-13T11:59:16.576Z,10.13
2018-01-13T12:01:44.109Z,10.03
2018-01-13T12:04:11.643Z,10.30
2018-01-13T12:06:39.984Z,8.80
2018-01-13T12:09:07.514Z,12.80
2018-01-13T12:11:36.831Z,10.40
2018-01-13T12:14:05.138Z,13.47
2018-01-13T12:16:33.478Z,11.33
2018-01-13T12:19:01.578Z,10.00
2018-01-13T12:21:29.597Z,24.53
2018-01-13T12:23:57.547Z,11.33
2018-01-13T12:26:25.926Z,17.40
2018-01-13T12:28:54.150Z,10.30
2018-01-13T12:31:22.448Z,13.00
2018-01-13T12:33:50.833Z,12.93
2018-01-13T12:36:19.601Z,13.00
2018-01-13T12:38:47.127Z,12.73
2018-01-13T12:41:15.454Z,10.10
2018-01-13T12:43:43.519Z,10.00
2018-01-13T12:46:11.916Z,11.93
2018-01-13T12:48:40.244Z,10.20
2018-01-13T12:51:08.583Z,12.30
2018-01-13T12:53:36.949Z,11.47
2018-01-13T12:56:05.334Z,16.30
2018-01-13T12:58:34.183Z,8.93
2018-01-13T13:01:02.571Z,18.97
2018-01-13T13:03:30.102Z,9.70
2018-01-13T13:05:57.980Z,8.57
2018-01-13T13:08:26.379Z,10.37
2018-01-13T13:10:55.643Z,8.83
2018-01-13T13:13:23.854Z,9.10
2018-01-13T13:15:52.275Z,9.43
2018-01-13T13:18:21.338Z,8.00
2018-01-13T13:20:48.919Z,9.67
2018-01-13T13:23:16.464Z,14.20
2018-01-13T13:25:44.983Z,8.03
2018-01-13T13:28:13.423Z,10.40
2018-01-13T13:30:41.932Z,8.57
2018-01-13T13:33:10.006Z,9.80
2018-01-13T13:35:37.584Z,12.73
2018-01-13T13:38:05.169Z,11.10
2018-01-13T13:40:32.769Z,9.53
2018-01-13T13:43:00.909Z,11.50
2018-01-13T13:45:28.488Z,16.37
2018-01-13T13:47:56.969Z,11.63
2018-01-13T13:50:25.360Z,10.23
2018-01-13T13:52:52.899Z,10.93
2018-01-13T13:55:22.796Z,8.80
2018-01-13T13:57:50.466Z,9.97
2018-01-13T14:00:18.039Z,8.30
2018-01-13T14:02:46.373Z,8.33
2018-01-13T14:05:14.851Z,9.90
2018-01-13T14:07:44.064Z,10.37
2018-01-13T14:10:12.347Z,10.77
2018-01-13T14:12:39.883Z,10.07
2018-01-13T14:15:08.401Z,10.43
2018-01-13T14:17:35.923Z,8.87
2018-01-13T14:20:05.461Z,8.53
2018-01-13T14:22:34.766Z,8.37
2018-01-13T14:25:03.130Z,12.13
2018-01-13T14:27:33.336Z,13.97
2018-01-13T14:30:03.773Z,9.97
2018-01-13T14:32:32.094Z,10.90
2018-01-13T14:34:59.695Z,14.50
2018-01-13T14:37:28.975Z,11.00
2018-01-13T14:39:57.497Z,9.27
2018-01-13T14:42:27.310Z,13.27
2018-01-13T14:44:54.889Z,18.00
2018-01-13T14:47:22.425Z,18.10
2018-01-13T14:49:50.035Z,10.10
2018-01-13T14:52:17.737Z,10.20
2018-01-13T14:54:46.162Z,10.10
2018-01-13T14:57:13.694Z,11.50
2018-01-13T14:59:42.034Z,8.93
2018-01-13T15:02:11.134Z,13.50
2018-01-13T15:04:39.267Z,11.90
2018-01-13T15:07:06.996Z,14.83
2018-01-13T15:09:36.359Z,10.07
2018-01-13T15:12:04.703Z,11.50
2018-01-13T15:14:33.457Z,21.93
2018-01-13T15:17:02.538Z,12.60
2018-01-13T15:19:31.986Z,11.67
2018-01-13T15:22:01.243Z,11.27
2018-01-13T15:24:28.907Z,12.40
2018-01-13T15:26:57.259Z,13.23
2018-01-13T15:29:25.624Z,12.13
2018-01-13T15:31:53.950Z,13.10
2018-01-13T15:34:22.758Z,11.80
2018-01-13T15:36:51.073Z,12.57
2018-01-13T15:39:19.113Z,10.50
2018-01-13T15:41:47.054Z,13.53
2018-01-13T15:44:15.214Z,13.70
2018-01-13T15:46:43.370Z,14.23
2018-01-13T15:49:10.902Z,13.43
2018-01-13T15:51:38.528Z,11.73
2018-01-13T15:54:07.716Z,12.70
2018-01-13T15:56:36.010Z,12.30
2018-01-13T15:59:04.531Z,14.50
2018-01-13T16:01:35.581Z,21.20
2018-01-13T16:04:03.924Z,20.07
2018-01-13T16:06:31.476Z,20.70
2018-01-13T16:09:01.695Z,19.30
2018-01-13T16:11:29.944Z,17.60
2018-01-13T16:13:57.520Z,20.60
2018-01-13T16:16:25.978Z,19.53
2018-01-13T16:18:54.521Z,15.50
2018-01-13T16:21:22.156Z,20.10
2018-01-13T16:23:49.711Z,21.40
2018-01-13T16:26:17.337Z,17.77
2018-01-13T16:28:44.912Z,20.60
2018-01-13T16:31:12.510Z,31.87
2018-01-13T16:33:41.278Z,37.07
2018-01-13T16:36:08.867Z,21.40
2018-01-13T16:38:36.934Z,22.17
2018-01-13T16:41:04.528Z,20.40
2018-01-13T16:43:32.072Z,23.97
2018-01-13T16:46:00.198Z,38.90
2018-01-13T16:48:28.501Z,45.60
2018-01-13T16:50:57.471Z,42.77
2018-01-13T16:53:26.298Z,28.47
2018-01-13T16:55:55.795Z,30.40
2018-01-13T16:58:25.081Z,25.77
2018-01-13T17:00:54.697Z,24.37
2018-01-13T17:03:22.836Z,26.80
2018-01-13T17:06:00.083Z,23.33
2018-01-13T17:08:28.821Z,24.30
2018-01-13T17:10:56.872Z,24.80
2018-01-13T17:13:24.398Z,20.97
2018-01-13T17:15:53.665Z,28.63
2018-01-13T17:18:22.061Z,30.23
2018-01-13T17:20:49.637Z,27.50
2018-01-13T17:23:17.168Z,26.17
2018-01-13T17:25:45.485Z,27.47
2018-01-13T17:28:13.023Z,28.13
2018-01-13T17:30:41.372Z,28.60
2018-01-13T17:33:09.758Z,28.07
2018-01-13T17:35:37.342Z,30.77
2018-01-13T17:38:05.906Z,37.00
2018-01-13T17:40:33.546Z,28.77
2018-01-13T17:43:02.762Z,32.10
2018-01-13T17:45:31.170Z,24.33
2018-01-13T17:47:58.711Z,25.53
2018-01-13T17:50:27.378Z,27.67
2018-01-13T17:52:54.909Z,34.50
2018-01-13T17:55:22.470Z,31.63
2018-01-13T17:57:51.964Z,45.53
2018-01-13T18:00:21.339Z,49.53
2018-01-13T18:02:49.698Z,35.20
2018-01-13T18:05:18.088Z,33.17
2018-01-13T18:07:47.093Z,29.93
2018-01-13T18:10:15.433Z,28.73
2018-01-13T18:12:44.128Z,25.90
2018-01-13T18:15:13.377Z,24.27
2018-01-13T18:17:41.605Z,28.40
2018-01-13T18:20:09.178Z,26.83
2018-01-13T18:22:36.734Z,30.20
2018-01-13T18:25:05.133Z,30.43
2018-01-13T18:27:32.716Z,31.77
2018-01-13T18:30:03.144Z,26.13
2018-01-13T18:32:30.745Z,25.10
2018-01-13T18:34:59.304Z,36.00
2018-01-13T18:37:28.633Z,26.10
2018-01-13T18:39:57.248Z,25.93
2018-01-13T18:42:24.981Z,24.40
2018-01-13T18:44:53.319Z,26.63
2018-01-13T18:47:23.424Z,25.67
2018-01-13T18:49:51.898Z,28.50
2018-01-13T18:52:28.909Z,19.83
2018-01-13T18:55:02.211Z,19.60
2018-01-13T18:57:32.211Z,24.50
2018-01-13T18:59:59.848Z,26.73
2018-01-13T19:02:27.430Z,24.10
2018-01-13T19:04:55.061Z,35.33
2018-01-13T19:07:23.396Z,25.27
2018-01-13T19:09:51.012Z,26.60
2018-01-13T19:12:19.824Z,31.70
2018-01-13T19:14:48.501Z,25.27
2018-01-13T19:17:16.059Z,34.13
2018-01-13T19:19:43.654Z,27.47
2018-01-13T19:22:11.214Z,24.40
2018-01-13T19:24:40.358Z,22.80
2018-01-13T19:27:08.221Z,21.80
2018-01-13T19:29:37.394Z,20.57
2018-01-13T19:32:06.082Z,24.73
2018-01-13T19:34:33.688Z,26.03
2018-01-13T19:37:02.448Z,19.47
2018-01-13T19:39:33.294Z,17.87
2018-01-13T19:42:01.804Z,24.17
2018-01-13T19:44:29.435Z,24.90
2018-01-13T19:46:58.202Z,25.47
2018-01-13T19:49:25.832Z,28.77
2018-01-13T19:51:54.296Z,30.10
2018-01-13T19:54:21.941Z,24.70
2018-01-13T19:56:50.099Z,25.57
2018-01-13T19:59:18.450Z,22.73
2018-01-13T20:01:46.595Z,21.10
2018-01-13T20:04:14.941Z,25.10
2018-01-13T20:06:44.339Z,23.30
2018-01-13T20:09:13.855Z,24.17
2018-01-13T20:11:41.469Z,26.43
2018-01-13T20:14:11.667Z,28.87
2018-01-13T20:16:40.054Z,28.33
2018-01-13T20:19:07.677Z,23.50
2018-01-13T20:21:38.692Z,27.97
2018-01-13T20:24:07.126Z,36.63
2018-01-13T20:26:35.895Z,31.13
2018-01-13T20:29:04.937Z,29.57
2018-01-13T20:31:33.313Z,25.77
2018-01-13T20:34:01.987Z,25.97
2018-01-13T20:36:30.175Z,28.47
2018-01-13T20:38:57.789Z,30.43
2018-01-13T20:41:26.849Z,23.97
2018-01-13T20:43:57.120Z,22.30
2018-01-13T20:46:25.481Z,26.70
2018-01-13T20:48:53.110Z,22.70
2018-01-13T20:51:21.655Z,25.80
2018-01-13T20:53:50.108Z,28.70
2018-01-13T20:56:17.696Z,19.20
2018-01-13T20:58:46.674Z,21.20
2018-01-13T21:01:15.082Z,25.03
2018-01-13T21:03:44.409Z,26.90
2018-01-13T21:06:11.953Z,27.50
2018-01-13T21:08:41.038Z,21.47
2018-01-13T21:11:10.570Z,23.67
2018-01-13T21:13:39.653Z,20.93
2018-01-13T21:16:08.175Z,21.40
2018-01-13T21:18:37.961Z,25.70
2018-01-13T21:21:06.781Z,24.53
2018-01-13T21:23:34.363Z,22.43
2018-01-13T21:26:04.410Z,20.50
2018-01-13T21:28:34.775Z,24.10
2018-01-13T21:31:02.423Z,25.80
2018-01-13T21:33:31.281Z,25.80
2018-01-13T21:35:58.930Z,23.27
2018-01-13T21:38:27.405Z,30.50
2018-01-13T21:40:56.063Z,25.80
2018-01-13T21:43:23.636Z,21.93
2018-01-13T21:45:52.198Z,30.67
2018-01-13T21:48:20.522Z,23.97
2018-01-13T21:50:48.546Z,24.43
2018-01-13T21:53:17.086Z,24.30
2018-01-13T21:55:45.564Z,22.57
2018-01-13T21:58:13.145Z,24.37
2018-01-13T22:00:40.798Z,22.07
2018-01-13T22:03:08.401Z,35.80
2018-01-13T22:05:37.560Z,29.00
2018-01-13T22:08:06.713Z,28.20
2018-01-13T22:10:35.030Z,24.00
2018-01-13T22:13:02.625Z,23.53
2018-01-13T22:15:35.162Z,25.87
2018-01-13T22:18:03.699Z,25.53
2018-01-13T22:20:32.102Z,25.60
2018-01-13T22:23:00.484Z,21.43
2018-01-13T22:25:28.927Z,22.03
2018-01-13T22:27:57.370Z,18.13
2018-01-13T22:30:29.212Z,20.40
2018-01-13T22:33:01.504Z,19.30
2018-01-13T22:35:29.895Z,22.23
2018-01-13T22:37:58.216Z,23.17
2018-01-13T22:40:25.830Z,21.60
2018-01-13T22:42:54.121Z,28.13
2018-01-13T22:45:21.770Z,20.83
2018-01-13T22:47:50.102Z,22.33
2018-01-13T22:50:17.686Z,24.17
2018-01-13T22:52:46.920Z,23.60
2018-01-13T22:55:16.343Z,19.63
2018-01-13T22:57:43.962Z,19.63
2018-01-13T23:00:15.593Z,23.50
2018-01-13T23:02:43.131Z,20.10
2018-01-13T23:05:12.288Z,20.03
2018-01-13T23:07:42.177Z,21.80
2018-01-13T23:10:11.431Z,23.13
2018-01-13T23:12:39.773Z,27.30
2018-01-13T23:15:09.969Z,21.70
2018-01-13T23:17:37.558Z,22.87
2018-01-13T23:20:05.675Z,25.00
2018-01-13T23:22:34.382Z,22.80
2018-01-13T23:25:04.044Z,24.03
2018-01-13T23:27:32.351Z,27.60
2018-01-13T23:30:03.522Z,20.90
2018-01-13T23:32:31.050Z,20.70
2018-01-13T23:35:00.026Z,23.57
2018-01-13T23:37:27.582Z,27.40
2018-01-13T23:39:55.174Z,27.70
2018-01-13T23:42:24.062Z,17.97
2018-01-13T23:44:53.056Z,21.97
2018-01-13T23:47:21.485Z,20.13
2018-01-13T23:49:51.412Z,23.23
2018-01-13T23:52:21.678Z,21.77
2018-01-13T23:54:50.084Z,19.50
2018-01-13T23:57:18.919Z,21.73
2018-01-13T23:59:53.062Z,24.57
